sensor_id;sensor_type;location;lat;lon;timestamp;pressure;altitude;pressure_sealevel;temperature;humidity
47913;BME280;33676;51.006;17.180;2023-04-23T00:00:45;99731.39;;;9.15;72.95
47913;BME280;33676;51.006;17.180;2023-04-23T00:03:31;99724.98;;;9.12;72.94
47913;BME280;33676;51.006;17.180;2023-04-23T00:06:05;99726.41;;;9.10;73.11
47913;BME280;33676;51.006;17.180;2023-04-23T00:08:40;99724.27;;;9.06;73.14
47913;BME280;33676;51.006;17.180;2023-04-23T00:11:09;99725.62;;;9.02;73.36
47913;BME280;33676;51.006;17.180;2023-04-23T00:13:37;99721.02;;;8.99;73.28
47913;BME280;33676;51.006;17.180;2023-04-23T00:16:07;99723.92;;;8.94;73.47
47913;BME280;33676;51.006;17.180;2023-04-23T00:18:38;99720.84;;;8.92;73.46
47913;BME280;33676;51.006;17.180;2023-04-23T00:21:06;99714.85;;;8.88;73.55
47913;BME280;33676;51.006;17.180;2023-04-23T00:23:38;99712.89;;;8.85;73.72
47913;BME280;33676;51.006;17.180;2023-04-23T00:26:06;99713.02;;;8.81;73.63
47913;BME280;33676;51.006;17.180;2023-04-23T00:28:35;99709.64;;;8.78;73.73
47913;BME280;33676;51.006;17.180;2023-04-23T00:31:03;99710.16;;;8.73;73.86
47913;BME280;33676;51.006;17.180;2023-04-23T00:33:32;99706.73;;;8.70;73.98
47913;BME280;33676;51.006;17.180;2023-04-23T00:36:00;99704.42;;;8.67;74.04
47913;BME280;33676;51.006;17.180;2023-04-23T00:38:28;99700.17;;;8.63;74.15
47913;BME280;33676;51.006;17.180;2023-04-23T00:40:57;99694.42;;;8.61;74.32
47913;BME280;33676;51.006;17.180;2023-04-23T00:43:26;99697.02;;;8.59;74.30
47913;BME280;33676;51.006;17.180;2023-04-23T00:45:54;99694.27;;;8.56;74.53
47913;BME280;33676;51.006;17.180;2023-04-23T00:48:23;99693.63;;;8.53;74.60
47913;BME280;33676;51.006;17.180;2023-04-23T00:51:10;99692.31;;;8.50;74.77
47913;BME280;33676;51.006;17.180;2023-04-23T01:13:33;99689.05;;;8.67;74.72
47913;BME280;33676;51.006;17.180;2023-04-23T01:16:01;99688.86;;;8.68;74.68
47913;BME280;33676;51.006;17.180;2023-04-23T01:18:30;99686.70;;;8.61;74.62
47913;BME280;33676;51.006;17.180;2023-04-23T01:20:59;99684.49;;;8.56;74.68
47913;BME280;33676;51.006;17.180;2023-04-23T01:23:28;99685.10;;;8.51;74.78
47913;BME280;33676;51.006;17.180;2023-04-23T01:25:56;99683.32;;;8.45;74.85
47913;BME280;33676;51.006;17.180;2023-04-23T01:28:26;99683.17;;;8.40;74.95
47913;BME280;33676;51.006;17.180;2023-04-23T01:30:55;99684.06;;;8.36;75.10
47913;BME280;33676;51.006;17.180;2023-04-23T01:33:24;99681.95;;;8.31;75.14
47913;BME280;33676;51.006;17.180;2023-04-23T01:35:54;99677.94;;;8.27;75.33
47913;BME280;33676;51.006;17.180;2023-04-23T01:38:24;99675.99;;;8.23;75.38
47913;BME280;33676;51.006;17.180;2023-04-23T01:40:54;99679.40;;;8.19;75.40
47913;BME280;33676;51.006;17.180;2023-04-23T01:43:24;99681.48;;;8.15;75.47
47913;BME280;33676;51.006;17.180;2023-04-23T01:45:53;99673.80;;;8.11;75.56
47913;BME280;33676;51.006;17.180;2023-04-23T01:48:21;99670.42;;;8.07;75.68
47913;BME280;33676;51.006;17.180;2023-04-23T01:50:50;99675.65;;;8.05;75.82
47913;BME280;33676;51.006;17.180;2023-04-23T01:53:19;99673.95;;;8.02;75.83
47913;BME280;33676;51.006;17.180;2023-04-23T01:55:48;99670.04;;;7.98;75.95
47913;BME280;33676;51.006;17.180;2023-04-23T01:58:18;99670.77;;;7.95;75.93
47913;BME280;33676;51.006;17.180;2023-04-23T02:00:47;99665.49;;;7.92;76.20
47913;BME280;33676;51.006;17.180;2023-04-23T02:03:16;99664.15;;;7.89;76.31
47913;BME280;33676;51.006;17.180;2023-04-23T02:05:45;99664.66;;;7.87;76.23
47913;BME280;33676;51.006;17.180;2023-04-23T02:08:13;99660.53;;;7.84;76.37
47913;BME280;33676;51.006;17.180;2023-04-23T02:10:42;99661.23;;;7.82;76.44
47913;BME280;33676;51.006;17.180;2023-04-23T02:13:10;99661.70;;;7.80;76.44
47913;BME280;33676;51.006;17.180;2023-04-23T02:15:38;99660.60;;;7.79;76.61
47913;BME280;33676;51.006;17.180;2023-04-23T02:18:07;99659.60;;;7.76;76.82
47913;BME280;33676;51.006;17.180;2023-04-23T02:20:36;99658.43;;;7.73;76.63
47913;BME280;33676;51.006;17.180;2023-04-23T02:23:07;99659.26;;;7.69;76.82
47913;BME280;33676;51.006;17.180;2023-04-23T02:25:37;99658.29;;;7.66;76.81
47913;BME280;33676;51.006;17.180;2023-04-23T02:28:06;99654.61;;;7.61;76.68
47913;BME280;33676;51.006;17.180;2023-04-23T02:30:35;99649.58;;;7.59;76.87
47913;BME280;33676;51.006;17.180;2023-04-23T02:33:04;99649.98;;;7.56;77.03
47913;BME280;33676;51.006;17.180;2023-04-23T02:35:33;99650.17;;;7.53;77.00
47913;BME280;33676;51.006;17.180;2023-04-23T02:38:01;99654.19;;;7.51;76.83
47913;BME280;33676;51.006;17.180;2023-04-23T02:40:30;99646.20;;;7.49;77.02
47913;BME280;33676;51.006;17.180;2023-04-23T02:42:58;99649.15;;;7.47;77.20
47913;BME280;33676;51.006;17.180;2023-04-23T02:45:27;99651.43;;;7.44;77.35
47913;BME280;33676;51.006;17.180;2023-04-23T02:47:57;99654.10;;;7.41;77.32
47913;BME280;33676;51.006;17.180;2023-04-23T02:50:26;99652.84;;;7.37;77.22
47913;BME280;33676;51.006;17.180;2023-04-23T02:52:54;99655.71;;;7.33;77.63
47913;BME280;33676;51.006;17.180;2023-04-23T02:55:23;99652.52;;;7.29;77.75
47913;BME280;33676;51.006;17.180;2023-04-23T02:57:53;99655.75;;;7.26;77.68
47913;BME280;33676;51.006;17.180;2023-04-23T03:00:26;99656.73;;;7.22;77.89
47913;BME280;33676;51.006;17.180;2023-04-23T03:02:55;99657.19;;;7.18;77.75
47913;BME280;33676;51.006;17.180;2023-04-23T03:05:23;99658.42;;;7.15;77.82
47913;BME280;33676;51.006;17.180;2023-04-23T03:07:52;99656.41;;;7.12;78.17
47913;BME280;33676;51.006;17.180;2023-04-23T03:10:21;99657.60;;;7.10;78.25
47913;BME280;33676;51.006;17.180;2023-04-23T03:12:49;99653.30;;;7.07;78.47
47913;BME280;33676;51.006;17.180;2023-04-23T03:15:17;99655.38;;;7.05;78.34
47913;BME280;33676;51.006;17.180;2023-04-23T03:17:46;99653.92;;;7.04;78.62
47913;BME280;33676;51.006;17.180;2023-04-23T03:20:15;99654.23;;;7.02;78.76
47913;BME280;33676;51.006;17.180;2023-04-23T03:22:43;99653.29;;;6.98;78.83
47913;BME280;33676;51.006;17.180;2023-04-23T03:25:11;99650.59;;;6.94;78.58
47913;BME280;33676;51.006;17.180;2023-04-23T03:27:40;99652.42;;;6.91;78.68
47913;BME280;33676;51.006;17.180;2023-04-23T03:30:10;99647.78;;;6.88;78.76
47913;BME280;33676;51.006;17.180;2023-04-23T03:32:38;99650.28;;;6.85;78.88
47913;BME280;33676;51.006;17.180;2023-04-23T03:35:07;99648.23;;;6.82;79.10
47913;BME280;33676;51.006;17.180;2023-04-23T03:37:37;99649.11;;;6.79;78.98
47913;BME280;33676;51.006;17.180;2023-04-23T03:40:06;99645.17;;;6.76;79.20
47913;BME280;33676;51.006;17.180;2023-04-23T03:42:36;99646.95;;;6.73;79.31
47913;BME280;33676;51.006;17.180;2023-04-23T03:45:05;99647.07;;;6.72;79.38
47913;BME280;33676;51.006;17.180;2023-04-23T03:47:34;99647.39;;;6.70;79.42
47913;BME280;33676;51.006;17.180;2023-04-23T03:50:06;99648.85;;;6.69;79.51
47913;BME280;33676;51.006;17.180;2023-04-23T03:52:35;99645.00;;;6.67;79.58
47913;BME280;33676;51.006;17.180;2023-04-23T03:55:04;99646.11;;;6.66;79.87
47913;BME280;33676;51.006;17.180;2023-04-23T03:57:33;99646.34;;;6.65;80.00
47913;BME280;33676;51.006;17.180;2023-04-23T04:00:03;99642.02;;;6.64;80.13
47913;BME280;33676;51.006;17.180;2023-04-23T04:02:32;99644.27;;;6.65;80.46
47913;BME280;33676;51.006;17.180;2023-04-23T04:05:00;99642.02;;;6.65;80.53
47913;BME280;33676;51.006;17.180;2023-04-23T04:07:29;99644.71;;;6.66;80.51
47913;BME280;33676;51.006;17.180;2023-04-23T04:09:58;99645.70;;;6.67;80.65
47913;BME280;33676;51.006;17.180;2023-04-23T04:12:26;99645.62;;;6.68;80.65
47913;BME280;33676;51.006;17.180;2023-04-23T04:14:55;99646.38;;;6.69;80.84
47913;BME280;33676;51.006;17.180;2023-04-23T04:17:23;99645.17;;;6.72;80.98
47913;BME280;33676;51.006;17.180;2023-04-23T04:19:52;99645.23;;;6.73;81.18
47913;BME280;33676;51.006;17.180;2023-04-23T04:22:20;99646.52;;;6.76;81.04
47913;BME280;33676;51.006;17.180;2023-04-23T04:24:48;99644.88;;;6.80;81.45
47913;BME280;33676;51.006;17.180;2023-04-23T04:27:20;99640.05;;;6.84;81.47
47913;BME280;33676;51.006;17.180;2023-04-23T04:29:48;99638.52;;;6.88;81.75
47913;BME280;33676;51.006;17.180;2023-04-23T04:32:17;99632.84;;;6.92;81.77
47913;BME280;33676;51.006;17.180;2023-04-23T04:34:46;99636.10;;;6.98;81.98
47913;BME280;33676;51.006;17.180;2023-04-23T04:37:14;99633.04;;;7.04;82.14
47913;BME280;33676;51.006;17.180;2023-04-23T04:39:43;99634.83;;;7.10;82.18
47913;BME280;33676;51.006;17.180;2023-04-23T04:42:11;99631.05;;;7.17;82.42
47913;BME280;33676;51.006;17.180;2023-04-23T04:44:40;99630.99;;;7.24;82.71
47913;BME280;33676;51.006;17.180;2023-04-23T04:47:10;99629.05;;;7.31;82.85
47913;BME280;33676;51.006;17.180;2023-04-23T04:49:40;99632.29;;;7.40;82.92
47913;BME280;33676;51.006;17.180;2023-04-23T04:52:10;99630.48;;;7.47;83.24
47913;BME280;33676;51.006;17.180;2023-04-23T04:54:38;99630.90;;;7.55;83.37
47913;BME280;33676;51.006;17.180;2023-04-23T04:57:09;99631.92;;;7.65;83.44
47913;BME280;33676;51.006;17.180;2023-04-23T04:59:38;99628.42;;;7.74;83.69
47913;BME280;33676;51.006;17.180;2023-04-23T05:02:07;99626.98;;;7.84;83.84
47913;BME280;33676;51.006;17.180;2023-04-23T05:04:35;99628.82;;;7.93;83.92
47913;BME280;33676;51.006;17.180;2023-04-23T05:07:03;99627.75;;;8.03;83.89
47913;BME280;33676;51.006;17.180;2023-04-23T05:09:32;99626.80;;;8.13;84.01
47913;BME280;33676;51.006;17.180;2023-04-23T05:12:00;99625.39;;;8.24;84.12
47913;BME280;33676;51.006;17.180;2023-04-23T05:14:29;99625.65;;;8.34;84.11
47913;BME280;33676;51.006;17.180;2023-04-23T05:16:57;99624.95;;;8.45;84.35
47913;BME280;33676;51.006;17.180;2023-04-23T05:19:26;99628.01;;;8.57;84.22
47913;BME280;33676;51.006;17.180;2023-04-23T05:21:55;99624.33;;;8.68;84.11
47913;BME280;33676;51.006;17.180;2023-04-23T05:24:23;99618.90;;;8.79;83.95
47913;BME280;33676;51.006;17.180;2023-04-23T05:26:52;99622.98;;;8.91;84.09
47913;BME280;33676;51.006;17.180;2023-04-23T05:29:20;99616.63;;;9.03;83.99
47913;BME280;33676;51.006;17.180;2023-04-23T05:31:49;99617.89;;;9.13;83.88
47913;BME280;33676;51.006;17.180;2023-04-23T05:34:17;99619.02;;;9.24;83.90
47913;BME280;33676;51.006;17.180;2023-04-23T05:36:45;99619.07;;;9.36;83.79
47913;BME280;33676;51.006;17.180;2023-04-23T05:39:14;99615.33;;;9.47;83.72
47913;BME280;33676;51.006;17.180;2023-04-23T05:41:42;99616.20;;;9.60;83.85
47913;BME280;33676;51.006;17.180;2023-04-23T05:44:11;99613.05;;;9.72;83.74
47913;BME280;33676;51.006;17.180;2023-04-23T05:46:39;99614.63;;;9.84;83.71
47913;BME280;33676;51.006;17.180;2023-04-23T05:49:07;99614.13;;;9.96;83.64
47913;BME280;33676;51.006;17.180;2023-04-23T05:51:36;99617.41;;;10.09;83.73
47913;BME280;33676;51.006;17.180;2023-04-23T05:54:04;99615.66;;;10.21;83.54
47913;BME280;33676;51.006;17.180;2023-04-23T05:56:33;99612.23;;;10.32;83.28
47913;BME280;33676;51.006;17.180;2023-04-23T05:59:01;99612.84;;;10.43;83.26
47913;BME280;33676;51.006;17.180;2023-04-23T06:01:30;99615.95;;;10.55;83.27
47913;BME280;33676;51.006;17.180;2023-04-23T06:03:59;99613.38;;;10.66;83.17
47913;BME280;33676;51.006;17.180;2023-04-23T06:06:28;99608.42;;;10.77;82.91
47913;BME280;33676;51.006;17.180;2023-04-23T06:08:56;99609.93;;;10.87;82.75
47913;BME280;33676;51.006;17.180;2023-04-23T06:11:25;99608.91;;;10.98;82.78
47913;BME280;33676;51.006;17.180;2023-04-23T06:13:53;99611.95;;;11.09;82.64
47913;BME280;33676;51.006;17.180;2023-04-23T06:16:24;99608.44;;;11.20;82.73
47913;BME280;33676;51.006;17.180;2023-04-23T06:18:53;99607.54;;;11.33;82.67
47913;BME280;33676;51.006;17.180;2023-04-23T06:21:23;99599.31;;;11.46;82.85
47913;BME280;33676;51.006;17.180;2023-04-23T06:23:52;99599.90;;;11.60;82.93
47913;BME280;33676;51.006;17.180;2023-04-23T06:26:20;99599.42;;;11.74;82.92
47913;BME280;33676;51.006;17.180;2023-04-23T06:28:49;99597.33;;;11.87;82.73
47913;BME280;33676;51.006;17.180;2023-04-23T06:31:17;99597.06;;;12.02;82.78
47913;BME280;33676;51.006;17.180;2023-04-23T06:33:46;99598.41;;;12.15;82.55
47913;BME280;33676;51.006;17.180;2023-04-23T06:36:15;99593.93;;;12.28;82.51
47913;BME280;33676;51.006;17.180;2023-04-23T06:38:43;99594.91;;;12.42;82.38
47913;BME280;33676;51.006;17.180;2023-04-23T06:41:12;99597.29;;;12.57;82.44
47913;BME280;33676;51.006;17.180;2023-04-23T06:43:41;99592.84;;;12.72;82.31
47913;BME280;33676;51.006;17.180;2023-04-23T06:46:09;99594.52;;;12.87;82.02
47913;BME280;33676;51.006;17.180;2023-04-23T06:48:38;99593.98;;;13.01;81.88
47913;BME280;33676;51.006;17.180;2023-04-23T06:51:06;99593.40;;;13.16;81.97
47913;BME280;33676;51.006;17.180;2023-04-23T06:53:36;99586.85;;;13.33;81.95
47913;BME280;33676;51.006;17.180;2023-04-23T06:56:05;99584.70;;;13.50;82.01
47913;BME280;33676;51.006;17.180;2023-04-23T06:58:35;99585.23;;;13.69;81.94
47913;BME280;33676;51.006;17.180;2023-04-23T07:01:23;99580.27;;;13.90;81.77
47913;BME280;33676;51.006;17.180;2023-04-23T07:03:52;99577.77;;;14.05;81.53
47913;BME280;33676;51.006;17.180;2023-04-23T07:06:21;99579.20;;;14.22;81.38
47913;BME280;33676;51.006;17.180;2023-04-23T07:08:50;99575.43;;;14.38;81.52
47913;BME280;33676;51.006;17.180;2023-04-23T07:11:18;99572.58;;;14.53;81.40
47913;BME280;33676;51.006;17.180;2023-04-23T07:13:49;99569.92;;;14.67;81.01
47913;BME280;33676;51.006;17.180;2023-04-23T07:16:18;99565.52;;;14.81;80.86
47913;BME280;33676;51.006;17.180;2023-04-23T07:18:49;99565.94;;;14.97;80.60
47913;BME280;33676;51.006;17.180;2023-04-23T07:21:18;99558.91;;;15.13;80.28
47913;BME280;33676;51.006;17.180;2023-04-23T07:23:46;99551.73;;;15.29;80.17
47913;BME280;33676;51.006;17.180;2023-04-23T07:26:14;99557.23;;;15.44;79.68
47913;BME280;33676;51.006;17.180;2023-04-23T07:28:43;99558.10;;;15.61;79.76
47913;BME280;33676;51.006;17.180;2023-04-23T07:31:13;99554.08;;;15.78;79.75
47913;BME280;33676;51.006;17.180;2023-04-23T07:33:42;99552.20;;;15.96;79.57
47913;BME280;33676;51.006;17.180;2023-04-23T07:36:10;99553.41;;;16.12;79.09
47913;BME280;33676;51.006;17.180;2023-04-23T07:38:39;99555.02;;;16.25;79.13
47913;BME280;33676;51.006;17.180;2023-04-23T07:41:08;99549.41;;;16.42;79.00
47913;BME280;33676;51.006;17.180;2023-04-23T07:43:38;99548.77;;;16.57;78.84
47913;BME280;33676;51.006;17.180;2023-04-23T07:46:07;99548.65;;;16.74;78.87
47913;BME280;33676;51.006;17.180;2023-04-23T07:48:36;99547.37;;;16.91;78.69
47913;BME280;33676;51.006;17.180;2023-04-23T07:58:08;99542.37;;;17.60;77.20
47913;BME280;33676;51.006;17.180;2023-04-23T08:00:37;99539.51;;;17.73;76.68
47913;BME280;33676;51.006;17.180;2023-04-23T08:03:05;99540.34;;;17.90;76.60
47913;BME280;33676;51.006;17.180;2023-04-23T08:05:34;99538.95;;;18.06;76.38
47913;BME280;33676;51.006;17.180;2023-04-23T08:08:05;99543.79;;;18.23;76.03
47913;BME280;33676;51.006;17.180;2023-04-23T08:10:34;99539.82;;;18.36;75.86
47913;BME280;33676;51.006;17.180;2023-04-23T08:13:03;99536.33;;;18.53;75.87
47913;BME280;33676;51.006;17.180;2023-04-23T08:15:31;99531.67;;;18.71;75.60
47913;BME280;33676;51.006;17.180;2023-04-23T08:18:00;99534.52;;;18.89;75.51
47913;BME280;33676;51.006;17.180;2023-04-23T08:20:28;99534.80;;;19.06;75.13
47913;BME280;33676;51.006;17.180;2023-04-23T08:22:57;99529.84;;;19.22;75.15
47913;BME280;33676;51.006;17.180;2023-04-23T08:25:25;99528.43;;;19.38;74.55
47913;BME280;33676;51.006;17.180;2023-04-23T08:27:54;99527.36;;;19.58;74.40
47913;BME280;33676;51.006;17.180;2023-04-23T08:30:22;99523.95;;;19.80;73.83
47913;BME280;33676;51.006;17.180;2023-04-23T08:32:52;99525.32;;;20.01;73.40
47913;BME280;33676;51.006;17.180;2023-04-23T08:35:23;99523.52;;;20.23;73.25
47913;BME280;33676;51.006;17.180;2023-04-23T08:37:51;99519.42;;;20.48;73.09
47913;BME280;33676;51.006;17.180;2023-04-23T08:40:20;99520.08;;;20.72;72.49
47913;BME280;33676;51.006;17.180;2023-04-23T08:42:52;99515.48;;;20.91;72.03
47913;BME280;33676;51.006;17.180;2023-04-23T08:45:23;99510.85;;;21.14;72.03
47913;BME280;33676;51.006;17.180;2023-04-23T08:47:59;99510.14;;;21.37;71.00
47913;BME280;33676;51.006;17.180;2023-04-23T08:50:30;99508.79;;;21.56;70.39
47913;BME280;33676;51.006;17.180;2023-04-23T08:53:01;99505.73;;;21.77;70.13
47913;BME280;33676;51.006;17.180;2023-04-23T08:55:33;99505.14;;;22.03;70.09
47913;BME280;33676;51.006;17.180;2023-04-23T08:58:05;99501.53;;;22.33;70.02
47913;BME280;33676;51.006;17.180;2023-04-23T09:00:35;99497.60;;;22.58;69.12
47913;BME280;33676;51.006;17.180;2023-04-23T09:03:03;99490.63;;;22.79;68.66
47913;BME280;33676;51.006;17.180;2023-04-23T09:05:33;99487.19;;;23.02;68.61
47913;BME280;33676;51.006;17.180;2023-04-23T09:08:02;99484.55;;;23.32;68.60
47913;BME280;33676;51.006;17.180;2023-04-23T09:10:31;99482.02;;;23.62;68.47
47913;BME280;33676;51.006;17.180;2023-04-23T09:13:00;99479.50;;;23.86;67.54
47913;BME280;33676;51.006;17.180;2023-04-23T09:15:28;99476.69;;;24.04;66.78
47913;BME280;33676;51.006;17.180;2023-04-23T09:17:57;99475.55;;;24.18;66.45
47913;BME280;33676;51.006;17.180;2023-04-23T09:20:27;99476.80;;;24.35;66.14
47913;BME280;33676;51.006;17.180;2023-04-23T09:22:55;99479.73;;;24.46;65.90
47913;BME280;33676;51.006;17.180;2023-04-23T09:25:24;99480.46;;;24.60;65.95
47913;BME280;33676;51.006;17.180;2023-04-23T09:27:57;99479.32;;;24.74;65.46
47913;BME280;33676;51.006;17.180;2023-04-23T09:30:27;99477.39;;;24.85;64.79
47913;BME280;33676;51.006;17.180;2023-04-23T09:32:55;99479.89;;;24.97;64.77
47913;BME280;33676;51.006;17.180;2023-04-23T09:35:26;99480.52;;;25.15;64.67
47913;BME280;33676;51.006;17.180;2023-04-23T09:37:54;99476.52;;;25.30;64.52
47913;BME280;33676;51.006;17.180;2023-04-23T09:40:25;99478.68;;;25.43;64.28
47913;BME280;33676;51.006;17.180;2023-04-23T09:42:54;99478.66;;;25.53;63.78
47913;BME280;33676;51.006;17.180;2023-04-23T09:45:23;99471.79;;;25.67;63.94
47913;BME280;33676;51.006;17.180;2023-04-23T09:47:56;99468.42;;;25.91;63.83
47913;BME280;33676;51.006;17.180;2023-04-23T09:50:34;99466.27;;;26.03;63.64
47913;BME280;33676;51.006;17.180;2023-04-23T09:53:05;99463.95;;;26.06;62.67
47913;BME280;33676;51.006;17.180;2023-04-23T09:55:38;99458.60;;;26.04;62.50
47913;BME280;33676;51.006;17.180;2023-04-23T09:58:14;99453.68;;;26.25;63.09
47913;BME280;33676;51.006;17.180;2023-04-23T10:00:43;99451.64;;;26.52;62.48
47913;BME280;33676;51.006;17.180;2023-04-23T10:03:11;99450.73;;;26.72;61.76
47913;BME280;33676;51.006;17.180;2023-04-23T10:05:42;99449.23;;;26.93;61.12
47913;BME280;33676;51.006;17.180;2023-04-23T10:08:14;99451.70;;;27.07;60.45
47913;BME280;33676;51.006;17.180;2023-04-23T10:10:44;99448.05;;;27.07;60.03
47913;BME280;33676;51.006;17.180;2023-04-23T10:13:34;99444.89;;;27.12;59.33
47913;BME280;33676;51.006;17.180;2023-04-23T10:16:04;99444.84;;;27.17;59.13
47913;BME280;33676;51.006;17.180;2023-04-23T10:18:51;99447.90;;;27.31;59.18
47913;BME280;33676;51.006;17.180;2023-04-23T10:21:25;99451.95;;;27.31;58.77
47913;BME280;33676;51.006;17.180;2023-04-23T10:24:09;99453.44;;;27.11;57.27
47913;BME280;33676;51.006;17.180;2023-04-23T10:26:41;99453.94;;;26.88;56.81
47913;BME280;33676;51.006;17.180;2023-04-23T10:29:14;99455.64;;;26.64;56.32
47913;BME280;33676;51.006;17.180;2023-04-23T10:31:44;99460.40;;;26.37;55.95
47913;BME280;33676;51.006;17.180;2023-04-23T10:34:14;99461.23;;;26.19;56.10
47913;BME280;33676;51.006;17.180;2023-04-23T10:36:42;99464.55;;;26.11;56.46
47913;BME280;33676;51.006;17.180;2023-04-23T10:39:12;99468.30;;;25.99;56.82
47913;BME280;33676;51.006;17.180;2023-04-23T10:41:43;99469.02;;;25.86;56.29
47913;BME280;33676;51.006;17.180;2023-04-23T10:44:13;99471.73;;;25.72;56.35
47913;BME280;33676;51.006;17.180;2023-04-23T10:46:56;99473.92;;;25.51;55.70
47913;BME280;33676;51.006;17.180;2023-04-23T10:49:28;99473.16;;;25.19;55.54
47913;BME280;33676;51.006;17.180;2023-04-23T10:52:12;99474.59;;;24.93;55.62
47913;BME280;33676;51.006;17.180;2023-04-23T10:54:57;99472.52;;;24.73;56.05
47913;BME280;33676;51.006;17.180;2023-04-23T10:57:27;99471.98;;;24.66;56.73
47913;BME280;33676;51.006;17.180;2023-04-23T10:59:55;99471.90;;;24.63;56.76
47913;BME280;33676;51.006;17.180;2023-04-23T11:02:42;99466.50;;;24.57;56.85
47913;BME280;33676;51.006;17.180;2023-04-23T11:05:11;99468.58;;;24.50;57.00
47913;BME280;33676;51.006;17.180;2023-04-23T11:07:39;99469.93;;;24.49;57.27
47913;BME280;33676;51.006;17.180;2023-04-23T11:10:12;99472.85;;;24.47;57.38
47913;BME280;33676;51.006;17.180;2023-04-23T11:12:43;99473.08;;;24.43;57.83
47913;BME280;33676;51.006;17.180;2023-04-23T11:15:14;99471.89;;;24.42;57.96
47913;BME280;33676;51.006;17.180;2023-04-23T11:20:17;99470.99;;;24.46;57.74
47913;BME280;33676;51.006;17.180;2023-04-23T11:22:53;99472.38;;;24.48;57.68
47913;BME280;33676;51.006;17.180;2023-04-23T11:25:26;99466.79;;;24.49;57.88
47913;BME280;33676;51.006;17.180;2023-04-23T11:27:56;99466.74;;;24.50;57.59
47913;BME280;33676;51.006;17.180;2023-04-23T11:30:29;99466.95;;;24.52;57.73
47913;BME280;33676;51.006;17.180;2023-04-23T11:32:58;99465.50;;;24.58;57.92
47913;BME280;33676;51.006;17.180;2023-04-23T11:35:28;99463.66;;;24.67;58.22
47913;BME280;33676;51.006;17.180;2023-04-23T11:38:07;99462.54;;;24.79;58.28
47913;BME280;33676;51.006;17.180;2023-04-23T11:40:35;99463.65;;;24.91;58.59
47913;BME280;33676;51.006;17.180;2023-04-23T11:43:04;99464.34;;;25.02;58.55
47913;BME280;33676;51.006;17.180;2023-04-23T11:45:33;99461.68;;;25.03;58.25
47913;BME280;33676;51.006;17.180;2023-04-23T11:48:01;99458.44;;;25.09;58.59
47913;BME280;33676;51.006;17.180;2023-04-23T11:53:10;99458.24;;;25.41;59.04
47913;BME280;33676;51.006;17.180;2023-04-23T11:55:39;99460.73;;;25.60;58.94
47913;BME280;33676;51.006;17.180;2023-04-23T11:58:11;99457.30;;;25.78;58.58
47913;BME280;33676;51.006;17.180;2023-04-23T12:00:39;99458.13;;;25.92;58.79
47913;BME280;33676;51.006;17.180;2023-04-23T12:03:08;99456.02;;;26.15;59.24
47913;BME280;33676;51.006;17.180;2023-04-23T12:05:40;99452.55;;;26.36;58.95
47913;BME280;33676;51.006;17.180;2023-04-23T12:08:15;99456.55;;;26.43;58.15
47913;BME280;33676;51.006;17.180;2023-04-23T12:10:52;99457.52;;;26.44;58.25
47913;BME280;33676;51.006;17.180;2023-04-23T12:13:25;99454.89;;;26.51;57.58
47913;BME280;33676;51.006;17.180;2023-04-23T12:15:57;99461.67;;;26.50;56.59
47913;BME280;33676;51.006;17.180;2023-04-23T12:18:34;99462.06;;;26.51;55.71
47913;BME280;33676;51.006;17.180;2023-04-23T12:21:11;99464.33;;;26.45;55.72
47913;BME280;33676;51.006;17.180;2023-04-23T12:23:42;99463.15;;;26.36;55.99
47913;BME280;33676;51.006;17.180;2023-04-23T12:26:14;99464.98;;;26.25;55.85
47913;BME280;33676;51.006;17.180;2023-04-23T12:28:51;99471.62;;;26.16;55.54
47913;BME280;33676;51.006;17.180;2023-04-23T12:31:25;99468.02;;;25.96;55.13
47913;BME280;33676;51.006;17.180;2023-04-23T12:34:02;99474.66;;;25.71;54.75
47913;BME280;33676;51.006;17.180;2023-04-23T12:36:36;99474.33;;;25.43;54.71
47913;BME280;33676;51.006;17.180;2023-04-23T12:39:29;99475.67;;;25.17;54.45
47913;BME280;33676;51.006;17.180;2023-04-23T12:42:00;99477.70;;;24.87;54.43
47913;BME280;33676;51.006;17.180;2023-04-23T12:44:34;99477.39;;;24.65;54.62
47913;BME280;33676;51.006;17.180;2023-04-23T12:47:06;99485.59;;;24.49;54.74
47913;BME280;33676;51.006;17.180;2023-04-23T12:49:37;99481.39;;;24.29;54.45
47913;BME280;33676;51.006;17.180;2023-04-23T12:52:07;99481.07;;;24.12;54.96
47913;BME280;33676;51.006;17.180;2023-04-23T12:54:39;99488.96;;;24.01;55.18
47913;BME280;33676;51.006;17.180;2023-04-23T12:57:11;99488.61;;;23.92;55.28
47913;BME280;33676;51.006;17.180;2023-04-23T12:59:41;99487.61;;;23.83;55.93
47913;BME280;33676;51.006;17.180;2023-04-23T13:02:10;99488.20;;;23.75;56.16
47913;BME280;33676;51.006;17.180;2023-04-23T13:04:39;99490.02;;;23.69;56.33
47913;BME280;33676;51.006;17.180;2023-04-23T13:07:07;99492.09;;;23.65;56.13
47913;BME280;33676;51.006;17.180;2023-04-23T13:09:37;99486.54;;;23.64;56.38
47913;BME280;33676;51.006;17.180;2023-04-23T13:12:06;99487.70;;;23.67;56.91
47913;BME280;33676;51.006;17.180;2023-04-23T13:14:34;99490.05;;;23.74;57.27
47913;BME280;33676;51.006;17.180;2023-04-23T13:17:03;99492.48;;;23.85;57.09
47913;BME280;33676;51.006;17.180;2023-04-23T13:19:32;99488.92;;;23.92;56.84
47913;BME280;33676;51.006;17.180;2023-04-23T13:22:03;99489.75;;;24.00;56.84
47913;BME280;33676;51.006;17.180;2023-04-23T13:24:32;99488.83;;;24.02;56.72
47913;BME280;33676;51.006;17.180;2023-04-23T13:27:00;99488.11;;;23.93;56.35
47913;BME280;33676;51.006;17.180;2023-04-23T13:29:29;99485.79;;;23.83;56.54
47913;BME280;33676;51.006;17.180;2023-04-23T13:31:58;99493.29;;;23.68;56.47
47913;BME280;33676;51.006;17.180;2023-04-23T13:34:26;99489.04;;;23.52;56.01
47913;BME280;33676;51.006;17.180;2023-04-23T13:36:55;99487.76;;;23.34;55.88
47913;BME280;33676;51.006;17.180;2023-04-23T13:39:24;99492.22;;;23.10;56.10
47913;BME280;33676;51.006;17.180;2023-04-23T13:41:53;99485.89;;;22.86;56.43